Time;durP1;ratioP1;P1;durP2;ratioP2;P2;SDS_P1;SDS_P2;PMS_P1;PMS_P2;Temp;Humidity;BMP_temperature;BMP_pressure;BME280_temperature;BME280_humidity;BME280_pressure;Samples;Min_cycle;Max_cycle;Signal;HPM_P1;HPM_P2
2022/10/06 00:00:48;;;;;;;8.23;0.93;;;13.00;99.90;;;;;;6238416;23;20095;-85
2022/10/06 00:03:14;;;;;;;5.53;0.82;;;13.00;99.90;;;;;;6241067;22;20079;-84
2022/10/06 00:05:40;;;;;;;4.35;0.80;;;13.00;99.90;;;;;;6238703;23;20479;-84
2022/10/06 00:08:06;;;;;;;4.03;0.60;;;12.90;99.90;;;;;;6239197;23;20027;-84
2022/10/06 00:10:32;;;;;;;9.48;1.08;;;12.90;99.90;;;;;;6240539;22;20012;-84
2022/10/06 00:12:58;;;;;;;8.38;0.93;;;12.90;99.90;;;;;;6240869;22;20066;-84
2022/10/06 00:15:29;;;;;;;4.88;0.75;;;12.90;99.90;;;;;;6239631;22;20103;-84
2022/10/06 00:17:56;;;;;;;7.75;0.80;;;12.80;99.90;;;;;;6241453;22;20095;-84
2022/10/06 00:20:23;;;;;;;9.23;0.98;;;12.80;99.90;;;;;;6239193;23;20441;-84
2022/10/06 00:22:50;;;;;;;7.95;1.15;;;12.80;99.90;;;;;;6238780;23;20047;-84
2022/10/06 00:25:19;;;;;;;5.00;0.80;;;12.80;99.90;;;;;;6240472;22;20020;-85
2022/10/06 00:27:46;;;;;;;13.38;1.33;;;12.70;99.90;;;;;;6212517;23;20012;-84
2022/10/06 00:30:15;;;;;;;11.57;0.90;;;12.70;99.90;;;;;;6213326;23;20021;-84
2022/10/06 00:32:48;;;;;;;8.23;1.20;;;12.70;99.90;;;;;;6240348;23;20016;-84
2022/10/06 00:35:14;;;;;;;9.02;1.13;;;12.70;99.90;;;;;;6240533;22;20015;-84
2022/10/06 00:37:39;;;;;;;8.90;0.95;;;12.70;99.90;;;;;;6240565;23;20075;-84
2022/10/06 00:40:08;;;;;;;8.60;1.10;;;12.70;99.90;;;;;;6240644;23;20070;-84
2022/10/06 00:42:55;;;;;;;8.10;1.05;;;12.60;99.90;;;;;;6238059;23;20082;-85
2022/10/06 00:45:44;;;;;;;9.30;1.05;;;12.60;99.90;;;;;;6238854;23;20023;-84
2022/10/06 00:48:21;;;;;;;9.60;1.00;;;12.60;99.90;;;;;;6239801;22;20047;-84
2022/10/06 00:50:47;;;;;;;7.07;1.23;;;12.60;99.90;;;;;;6240315;23;20087;-84
2022/10/06 00:53:14;;;;;;;6.82;1.30;;;12.50;99.90;;;;;;6240727;23;20393;-85
2022/10/06 00:55:40;;;;;;;8.13;1.27;;;12.50;99.90;;;;;;6239603;22;20019;-84
2022/10/06 00:58:07;;;;;;;6.68;0.90;;;12.50;99.90;;;;;;6239704;23;20016;-84
2022/10/06 01:00:32;;;;;;;7.72;1.00;;;12.50;99.90;;;;;;6240550;23;20015;-85
2022/10/06 01:03:06;;;;;;;7.00;1.00;;;12.50;99.90;;;;;;6241938;23;20349;-84
2022/10/06 01:05:37;;;;;;;5.13;0.90;;;12.40;99.90;;;;;;6240372;23;20341;-84
2022/10/06 01:08:03;;;;;;;5.95;0.93;;;12.50;99.90;;;;;;6240282;23;20066;-85
2022/10/06 01:10:29;;;;;;;9.18;1.10;;;12.40;99.90;;;;;;6240966;23;20429;-84
2022/10/06 01:12:55;;;;;;;6.13;0.82;;;12.40;99.90;;;;;;6214373;23;20039;-84
2022/10/06 01:15:22;;;;;;;6.45;0.95;;;12.40;99.90;;;;;;6242538;22;20135;-84
2022/10/06 01:17:54;;;;;;;12.93;1.55;;;12.30;99.90;;;;;;6242478;22;20022;-85
2022/10/06 01:20:21;;;;;;;11.50;1.17;;;12.30;99.90;;;;;;6240140;23;20126;-85
2022/10/06 01:22:53;;;;;;;8.63;1.23;;;12.30;99.90;;;;;;6240276;23;20372;-85
2022/10/06 01:25:20;;;;;;;8.27;1.25;;;12.30;99.90;;;;;;6240284;23;20016;-85
2022/10/06 01:27:52;;;;;;;12.70;1.95;;;12.30;99.90;;;;;;6239812;23;20008;-84
2022/10/06 01:30:25;;;;;;;9.07;0.98;;;12.30;99.90;;;;;;6242067;22;20031;-85
2022/10/06 01:32:51;;;;;;;5.93;1.00;;;12.20;99.90;;;;;;6241724;22;20083;-84
2022/10/06 01:35:17;;;;;;;8.80;1.88;;;12.20;99.90;;;;;;6241982;22;20080;-84
2022/10/06 01:37:43;;;;;;;8.32;1.15;;;12.20;99.90;;;;;;6240381;23;20015;-84
2022/10/06 01:40:09;;;;;;;9.65;1.05;;;12.10;99.90;;;;;;6240013;23;20016;-84
2022/10/06 01:42:35;;;;;;;9.75;1.48;;;12.10;99.90;;;;;;6240252;23;20012;-84
2022/10/06 01:45:01;;;;;;;9.60;1.15;;;12.10;99.90;;;;;;6239618;23;20023;-85
2022/10/06 01:47:27;;;;;;;7.07;1.05;;;12.10;99.90;;;;;;6240282;23;20054;-84
2022/10/06 01:49:53;;;;;;;6.38;1.00;;;12.00;99.90;;;;;;6240231;23;20016;-85
2022/10/06 01:52:19;;;;;;;10.00;1.50;;;12.00;99.90;;;;;;6240085;23;20337;-84
2022/10/06 01:54:45;;;;;;;4.95;1.00;;;12.00;99.90;;;;;;6239438;23;20349;-85
2022/10/06 01:57:10;;;;;;;8.30;1.45;;;12.00;99.90;;;;;;6239921;23;20028;-84
2022/10/06 01:59:36;;;;;;;12.43;1.98;;;12.00;99.90;;;;;;6242024;23;20012;-84
2022/10/06 02:02:03;;;;;;;7.30;1.52;;;11.90;99.90;;;;;;6239884;23;20461;-85
2022/10/06 02:04:29;;;;;;;11.25;1.80;;;11.90;99.90;;;;;;6240075;23;20016;-85
2022/10/06 02:06:55;;;;;;;10.57;1.70;;;11.90;99.90;;;;;;6239363;23;20020;-85
2022/10/06 02:09:21;;;;;;;9.55;1.20;;;12.20;99.90;;;;;;6239940;22;20103;-84
2022/10/06 02:11:47;;;;;;;15.70;1.40;;;11.80;99.90;;;;;;6241524;22;20050;-84
2022/10/06 02:14:13;;;;;;;10.75;1.30;;;11.80;99.90;;;;;;6214574;23;20020;-84
2022/10/06 02:16:39;;;;;;;9.63;1.30;;;11.80;99.90;;;;;;6215548;23;20059;-84
2022/10/06 02:19:05;;;;;;;9.65;1.38;;;11.80;99.90;;;;;;6240051;23;20091;-84
2022/10/06 02:21:31;;;;;;;8.68;1.38;;;11.80;99.90;;;;;;6239441;23;20452;-84
2022/10/06 02:23:57;;;;;;;9.02;1.02;;;11.70;99.90;;;;;;6241569;23;20013;-84
2022/10/06 02:26:22;;;;;;;8.10;1.20;;;11.70;99.90;;;;;;6241665;22;20441;-84
2022/10/06 02:28:48;;;;;;;7.60;1.30;;;11.70;99.90;;;;;;6239653;23;20015;-84
2022/10/06 02:31:15;;;;;;;9.02;2.08;;;11.60;99.90;;;;;;6242164;22;20019;-84
2022/10/06 02:33:41;;;;;;;8.35;1.15;;;11.70;99.90;;;;;;6241112;22;20506;-84
2022/10/06 02:36:10;;;;;;;7.40;1.40;;;11.60;99.90;;;;;;6214183;23;20016;-84
2022/10/06 02:38:36;;;;;;;18.27;2.40;;;11.60;99.90;;;;;;6238526;23;20077;-84
2022/10/06 02:41:01;;;;;;;9.80;1.48;;;11.60;99.90;;;;;;6240997;23;20322;-84
2022/10/06 02:43:30;;;;;;;11.57;1.75;;;11.60;99.90;;;;;;6238601;23;20012;-84
2022/10/06 02:45:58;;;;;;;9.27;1.27;;;11.50;99.90;;;;;;6241996;22;20016;-84
2022/10/06 02:48:24;;;;;;;11.10;1.27;;;11.50;99.90;;;;;;6239099;23;20026;-84
2022/10/06 02:50:58;;;;;;;10.80;1.58;;;11.50;99.90;;;;;;6239821;23;20773;-84
2022/10/06 02:53:24;;;;;;;10.27;1.77;;;11.50;99.90;;;;;;6240515;22;20019;-84
2022/10/06 02:56:01;;;;;;;7.75;1.30;;;11.50;99.90;;;;;;6239323;22;20082;-84
2022/10/06 02:58:31;;;;;;;9.25;1.23;;;11.50;99.90;;;;;;6239677;23;20077;-84
2022/10/06 03:01:22;;;;;;;9.77;1.25;;;11.40;99.90;;;;;;6213978;23;20019;-85
2022/10/06 03:03:49;;;;;;;10.80;1.25;;;11.40;99.90;;;;;;6222074;23;20016;-82
2022/10/06 03:06:20;;;;;;;11.45;1.52;;;11.40;99.90;;;;;;6239556;23;20016;-84
2022/10/06 03:08:58;;;;;;;11.10;1.90;;;11.40;99.90;;;;;;6238210;23;20442;-84
2022/10/06 03:11:29;;;;;;;8.55;1.15;;;11.40;99.90;;;;;;6241014;22;20016;-85
2022/10/06 03:13:54;;;;;;;7.70;1.45;;;11.40;99.90;;;;;;6240611;22;20008;-85
2022/10/06 03:16:29;;;;;;;10.68;1.30;;;11.30;99.90;;;;;;6239520;23;20009;-84
2022/10/06 03:18:55;;;;;;;8.75;1.25;;;11.30;99.90;;;;;;6239297;23;20012;-84
2022/10/06 03:21:26;;;;;;;10.70;1.45;;;11.30;99.90;;;;;;6213711;23;20026;-85
2022/10/06 03:23:53;;;;;;;5.75;1.30;;;11.30;99.90;;;;;;6237438;23;20020;-84
2022/10/06 03:26:21;;;;;;;10.35;2.15;;;11.30;99.90;;;;;;6241228;22;20009;-84
2022/10/06 03:28:47;;;;;;;9.73;1.10;;;11.20;99.90;;;;;;6238955;23;20345;-84
2022/10/06 03:31:13;;;;;;;11.20;1.45;;;11.20;99.90;;;;;;6241055;23;20024;-85
2022/10/06 03:33:39;;;;;;;8.65;1.42;;;11.20;99.90;;;;;;6239360;23;20012;-84
2022/10/06 03:36:09;;;;;;;8.38;1.17;;;11.20;99.90;;;;;;6239115;23;20020;-85
2022/10/06 03:38:36;;;;;;;8.50;0.88;;;11.20;99.90;;;;;;6241493;22;20671;-85
2022/10/06 03:41:07;;;;;;;8.23;1.27;;;11.20;99.90;;;;;;6238306;23;20020;-85
2022/10/06 03:43:34;;;;;;;8.25;0.90;;;11.20;99.90;;;;;;6239122;23;20023;-85
2022/10/06 03:46:01;;;;;;;8.55;1.35;;;11.10;99.90;;;;;;6240643;22;20012;-84
2022/10/06 03:48:28;;;;;;;7.15;1.15;;;11.10;99.90;;;;;;6239198;23;20027;-85
2022/10/06 03:50:59;;;;;;;6.53;1.30;;;11.10;99.90;;;;;;6240196;22;20019;-84
2022/10/06 03:53:27;;;;;;;8.38;1.13;;;11.10;99.90;;;;;;6240862;22;20318;-85
2022/10/06 03:56:13;;;;;;;13.63;1.58;;;11.10;99.90;;;;;;6240063;22;20096;-85
2022/10/06 03:58:44;;;;;;;7.70;1.25;;;11.00;99.90;;;;;;6238675;23;20023;-85
2022/10/06 04:01:19;;;;;;;6.45;1.20;;;11.00;99.90;;;;;;6240819;22;20405;-84
2022/10/06 04:03:45;;;;;;;8.70;1.00;;;11.00;99.90;;;;;;6240952;23;20012;-84
2022/10/06 04:06:13;;;;;;;9.82;1.50;;;11.00;99.90;;;;;;6237963;23;20046;-84
2022/10/06 04:08:40;;;;;;;6.35;1.10;;;11.00;99.90;;;;;;6239057;23;20388;-85
2022/10/06 04:11:09;;;;;;;7.57;1.40;;;11.00;99.90;;;;;;6240476;22;20023;-84
2022/10/06 04:13:35;;;;;;;10.57;1.38;;;10.90;99.90;;;;;;6239167;23;20024;-85
2022/10/06 04:16:22;;;;;;;11.70;2.22;;;10.90;99.90;;;;;;6240944;22;20350;-84
2022/10/06 04:18:50;;;;;;;8.93;1.23;;;10.90;99.90;;;;;;6240671;22;20016;-85
2022/10/06 04:21:16;;;;;;;8.95;1.35;;;10.90;99.90;;;;;;6240013;22;20012;-85
2022/10/06 04:23:42;;;;;;;4.57;1.10;;;10.90;99.90;;;;;;6241091;22;20456;-85
2022/10/06 04:26:11;;;;;;;9.57;1.42;;;10.90;99.90;;;;;;6240713;23;20023;-84
2022/10/06 04:28:38;;;;;;;7.97;1.38;;;10.80;99.90;;;;;;6215730;23;20091;-85
2022/10/06 04:31:12;;;;;;;12.85;1.25;;;10.80;99.90;;;;;;6240970;23;20012;-85
2022/10/06 04:33:38;;;;;;;9.50;1.10;;;10.80;99.90;;;;;;6241155;23;20055;-85
2022/10/06 04:36:06;;;;;;;9.27;1.33;;;10.80;99.90;;;;;;6240173;23;20450;-84
2022/10/06 04:38:33;;;;;;;10.68;1.23;;;10.80;99.90;;;;;;6214983;23;20065;-83
2022/10/06 04:41:16;;;;;;;17.10;1.70;;;10.70;99.90;;;;;;6240829;23;20063;-86
2022/10/06 04:43:43;;;;;;;8.75;1.60;;;10.70;99.90;;;;;;6243642;22;20413;-85
2022/10/06 04:46:09;;;;;;;9.82;2.05;;;10.80;99.90;;;;;;6216334;23;20013;-86
2022/10/06 04:48:34;;;;;;;7.97;1.30;;;10.70;99.90;;;;;;6242153;23;20107;-87
2022/10/06 04:51:03;;;;;;;9.10;1.75;;;10.60;99.90;;;;;;6216201;23;20028;-86
2022/10/06 04:53:29;;;;;;;9.27;1.23;;;10.60;99.90;;;;;;6241275;23;20371;-84
2022/10/06 04:56:05;;;;;;;7.40;2.00;;;10.60;99.90;;;;;;6214817;23;20103;-84
2022/10/06 04:58:36;;;;;;;6.72;1.30;;;10.60;99.90;;;;;;6215171;23;20024;-84
2022/10/06 05:01:03;;;;;;;9.20;1.67;;;10.60;99.90;;;;;;6240271;23;20026;-84
2022/10/06 05:03:29;;;;;;;11.98;1.63;;;10.50;99.90;;;;;;6214867;23;20016;-85
2022/10/06 05:06:26;;;;;;;8.90;1.58;;;10.50;99.90;;;;;;6240231;23;20015;-85
2022/10/06 05:08:57;;;;;;;8.95;1.40;;;10.50;99.90;;;;;;6241809;22;20024;-85
2022/10/06 05:11:23;;;;;;;10.13;2.15;;;11.00;99.90;;;;;;6240421;23;20012;-85
2022/10/06 05:13:53;;;;;;;13.05;1.70;;;10.40;99.90;;;;;;6215024;23;20008;-84
2022/10/06 05:16:20;;;;;;;16.25;1.83;;;11.20;99.90;;;;;;6240230;23;20011;-84
2022/10/06 05:18:46;;;;;;;9.20;1.05;;;10.50;99.90;;;;;;6238355;23;20012;-84
2022/10/06 05:21:20;;;;;;;10.75;1.45;;;10.00;99.90;;;;;;6240236;23;20051;-83
2022/10/06 05:23:46;;;;;;;10.57;1.95;;;10.40;99.90;;;;;;6240368;23;20027;-84
2022/10/06 05:26:15;;;;;;;10.80;1.30;;;10.50;99.90;;;;;;6214921;23;20012;-81
2022/10/06 05:28:41;;;;;;;9.65;1.33;;;10.40;99.90;;;;;;6239912;23;20341;-81
2022/10/06 05:31:11;;;;;;;10.88;1.33;;;10.40;99.90;;;;;;6240054;23;20089;-81
2022/10/06 05:33:37;;;;;;;12.52;1.55;;;10.40;99.90;;;;;;6239740;23;20015;-81
2022/10/06 05:36:06;;;;;;;10.80;1.40;;;10.40;99.90;;;;;;6241551;22;20031;-81
2022/10/06 05:38:32;;;;;;;10.23;1.50;;;10.40;99.90;;;;;;6239622;23;20026;-81
2022/10/06 05:41:22;;;;;;;10.25;1.35;;;10.40;99.90;;;;;;6240231;23;20024;-81
2022/10/06 05:43:49;;;;;;;10.55;1.58;;;11.20;99.90;;;;;;6239106;23;20042;-81
2022/10/06 05:46:22;;;;;;;8.48;1.52;;;10.40;99.90;;;;;;6242086;22;20014;-82
2022/10/06 05:48:54;;;;;;;12.70;1.52;;;10.30;99.90;;;;;;6239714;23;20008;-82
2022/10/06 05:51:21;;;;;;;8.02;1.13;;;10.30;99.90;;;;;;6240412;23;20026;-83
2022/10/06 05:53:47;;;;;;;11.65;1.80;;;10.30;99.90;;;;;;6239141;23;20457;-83
2022/10/06 05:56:19;;;;;;;12.15;1.52;;;10.30;99.90;;;;;;6214149;23;20068;-83
2022/10/06 05:58:46;;;;;;;11.65;1.42;;;10.40;99.90;;;;;;6214503;23;20134;-83
2022/10/06 06:01:16;;;;;;;9.75;1.40;;;10.40;99.90;;;;;;6239398;23;20012;-83
2022/10/06 06:03:47;;;;;;;10.18;1.50;;;10.40;99.90;;;;;;6213833;23;20016;-85
2022/10/06 06:06:21;;;;;;;14.82;1.77;;;10.40;99.90;;;;;;6240591;23;20088;-86
2022/10/06 06:08:51;;;;;;;12.90;2.05;;;10.60;99.90;;;;;;6240059;23;20034;-86
2022/10/06 06:11:16;;;;;;;7.88;1.10;;;10.40;99.90;;;;;;6214810;23;20020;-86
2022/10/06 06:13:42;;;;;;;8.10;1.10;;;10.40;99.90;;;;;;6239977;23;20104;-86
2022/10/06 06:16:12;;;;;;;11.18;1.05;;;10.50;99.90;;;;;;6213774;23;20012;-89
2022/10/06 06:18:38;;;;;;;16.08;1.90;;;10.50;99.90;;;;;;6241471;22;20401;-87
2022/10/06 06:21:06;;;;;;;8.55;1.40;;;10.50;99.90;;;;;;6240171;22;20012;-88
2022/10/06 06:23:37;;;;;;;9.43;2.10;;;10.50;99.90;;;;;;6241297;23;20028;-88
2022/10/06 06:26:08;;;;;;;10.30;1.48;;;10.60;99.90;;;;;;6240801;22;20441;-88
2022/10/06 06:28:35;;;;;;;10.63;1.38;;;10.60;99.90;;;;;;6241938;22;20072;-89
2022/10/06 06:31:13;;;;;;;9.57;1.55;;;10.90;99.90;;;;;;6214027;23;20091;-89
2022/10/06 06:33:40;;;;;;;10.70;1.90;;;10.70;99.90;;;;;;6239409;23;20062;-89
2022/10/06 06:36:16;;;;;;;11.70;1.50;;;10.70;99.90;;;;;;6241719;22;20480;-90
2022/10/06 06:38:45;;;;;;;13.48;1.20;;;10.70;99.90;;;;;;6214491;23;20015;-88
2022/10/06 06:41:15;;;;;;;8.75;1.33;;;10.80;99.90;;;;;;6240216;22;20005;-88
2022/10/06 06:43:41;;;;;;;8.20;1.40;;;10.80;99.90;;;;;;6241319;22;20012;-90
2022/10/06 06:46:07;;;;;;;7.70;1.38;;;10.80;99.90;;;;;;6237880;23;20069;-88
2022/10/06 06:48:36;;;;;;;17.55;1.83;;;10.80;99.90;;;;;;6240621;23;20012;-89
2022/10/06 06:51:02;;;;;;;13.23;1.50;;;10.80;99.90;;;;;;6239729;23;20020;-90
2022/10/06 06:53:28;;;;;;;12.23;1.48;;;11.10;99.90;;;;;;6241159;22;20047;-90
2022/10/06 06:55:54;;;;;;;12.75;1.60;;;10.90;99.90;;;;;;6241012;23;20016;-90
2022/10/06 06:58:20;;;;;;;12.07;1.65;;;10.80;99.90;;;;;;6240019;23;20039;-87
2022/10/06 07:00:47;;;;;;;13.30;2.47;;;10.80;99.90;;;;;;6238318;23;20020;-83
2022/10/06 07:03:14;;;;;;;9.30;1.60;;;10.90;99.90;;;;;;6241235;22;20018;-86
2022/10/06 07:05:41;;;;;;;11.48;1.40;;;10.90;99.90;;;;;;6239469;23;20012;-86
2022/10/06 07:08:10;;;;;;;9.82;1.60;;;11.10;99.90;;;;;;6241743;22;20095;-86
2022/10/06 07:10:36;;;;;;;6.72;1.55;;;11.00;99.90;;;;;;6239237;23;20008;-84
2022/10/06 07:13:05;;;;;;;10.73;1.30;;;11.00;99.90;;;;;;6240853;22;20441;-86
2022/10/06 07:26:31;;;;;;;13.57;1.65;;;11.20;99.90;;;;;;6240885;23;20016;-84
2022/10/06 07:28:59;;;;;;;14.65;1.58;;;11.20;99.90;;;;;;6241023;22;20734;-86
2022/10/06 07:31:32;;;;;;;8.32;2.03;;;11.20;99.90;;;;;;6240643;22;20435;-86
2022/10/06 07:34:02;;;;;;;13.60;1.92;;;11.30;99.90;;;;;;6240797;22;20086;-86
2022/10/06 07:36:32;;;;;;;11.85;1.70;;;11.30;99.90;;;;;;6241305;22;20051;-86
2022/10/06 07:38:57;;;;;;;12.35;1.65;;;11.30;99.90;;;;;;6239403;23;20016;-87
2022/10/06 07:41:23;;;;;;;14.05;1.85;;;11.40;99.90;;;;;;6239236;23;20012;-86
2022/10/06 07:43:49;;;;;;;20.27;2.40;;;11.40;99.90;;;;;;6239352;23;20333;-87
2022/10/06 07:46:15;;;;;;;12.25;1.25;;;11.40;99.90;;;;;;6240821;23;20035;-86
2022/10/06 07:48:42;;;;;;;7.82;1.23;;;11.50;99.90;;;;;;6239192;23;20012;-87
2022/10/06 07:51:16;;;;;;;11.85;1.75;;;11.50;99.90;;;;;;6241033;22;20457;-86
2022/10/06 07:53:48;;;;;;;14.43;1.70;;;11.60;99.90;;;;;;6238337;23;20020;-87
2022/10/06 07:56:15;;;;;;;9.90;1.33;;;11.60;99.90;;;;;;6241112;22;20027;-87
2022/10/06 07:58:42;;;;;;;12.13;1.25;;;11.70;99.90;;;;;;6240028;23;20087;-86
2022/10/06 08:01:11;;;;;;;14.27;1.83;;;11.70;99.90;;;;;;6241412;23;20004;-87
2022/10/06 08:03:37;;;;;;;10.65;1.52;;;11.70;99.90;;;;;;6241372;23;20020;-87
2022/10/06 08:06:03;;;;;;;14.63;1.80;;;11.70;99.90;;;;;;6240847;23;20016;-87
2022/10/06 08:08:31;;;;;;;12.50;1.67;;;11.80;99.90;;;;;;6241103;23;20130;-86
2022/10/06 08:10:58;;;;;;;10.32;1.77;;;11.80;99.90;;;;;;6242629;22;20477;-87
2022/10/06 08:13:24;;;;;;;11.43;1.35;;;11.80;99.90;;;;;;6214860;23;20062;-87
2022/10/06 08:15:50;;;;;;;12.60;1.40;;;11.90;99.90;;;;;;6240988;23;20012;-87
2022/10/06 08:18:17;;;;;;;14.70;1.60;;;11.90;99.90;;;;;;6242947;23;20020;-87
2022/10/06 08:20:44;;;;;;;9.38;1.50;;;12.00;99.90;;;;;;6215270;23;20012;-86
2022/10/06 08:23:11;;;;;;;12.25;1.48;;;11.90;99.90;;;;;;6243104;22;20016;-87
2022/10/06 08:25:41;;;;;;;13.30;2.15;;;12.00;99.90;;;;;;6242976;22;20027;-87
2022/10/06 08:28:11;;;;;;;11.93;1.70;;;12.00;99.90;;;;;;6241608;22;20020;-87
2022/10/06 08:30:37;;;;;;;14.95;2.35;;;12.10;99.90;;;;;;6243071;22;20012;-87
2022/10/06 08:33:04;;;;;;;9.20;1.90;;;12.10;99.90;;;;;;6242990;22;20341;-87
2022/10/06 08:35:30;;;;;;;9.88;1.77;;;12.20;99.90;;;;;;6242395;22;20015;-87
2022/10/06 08:37:55;;;;;;;11.02;1.85;;;12.40;99.90;;;;;;6241256;23;20376;-87
2022/10/06 08:40:21;;;;;;;10.43;1.23;;;12.30;99.90;;;;;;6241380;23;20060;-87
2022/10/06 08:42:51;;;;;;;11.00;1.42;;;12.40;99.90;;;;;;6240179;22;20528;-88
2022/10/06 08:45:27;;;;;;;15.10;2.10;;;12.40;99.90;;;;;;6241272;22;20016;-87
2022/10/06 08:48:12;;;;;;;10.55;1.58;;;12.50;99.90;;;;;;6241344;23;20023;-87
2022/10/06 08:51:17;;;;;;;11.05;1.60;;;12.50;99.90;;;;;;6241614;22;20007;-87
2022/10/06 08:54:01;;;;;;;11.77;1.43;;;12.60;99.90;;;;;;6239181;22;20012;-89
2022/10/06 08:56:56;;;;;;;14.02;2.08;;;12.80;99.90;;;;;;6240218;22;20688;-90
2022/10/06 08:59:22;;;;;;;15.93;1.83;;;12.90;99.90;;;;;;6093363;23;20032;-88
2022/10/06 09:01:50;;;;;;;9.80;1.17;;;13.00;99.90;;;;;;6093522;23;20022;-87
2022/10/06 09:04:25;;;;;;;13.55;2.10;;;13.10;99.90;;;;;;6118231;23;20018;-87
2022/10/06 09:06:59;;;;;;;12.30;1.98;;;13.20;99.90;;;;;;6118422;23;20101;-87
2022/10/06 09:09:52;;;;;;;13.23;1.60;;;13.30;99.90;;;;;;6117760;23;20056;-87
2022/10/06 09:12:39;;;;;;;8.80;1.30;;;13.40;99.90;;;;;;6118275;23;20018;-87
2022/10/06 09:15:18;;;;;;;10.65;1.60;;;13.60;99.90;;;;;;6118167;23;20163;-87
2022/10/06 09:17:53;;;;;;;12.43;1.90;;;13.80;99.90;;;;;;6117146;23;20016;-87
2022/10/06 09:20:33;;;;;;;12.13;1.50;;;13.90;99.90;;;;;;6117940;23;20443;-86
2022/10/06 09:23:00;;;;;;;10.05;1.63;;;14.10;99.90;;;;;;6093965;23;20021;-86
2022/10/06 09:25:28;;;;;;;8.40;1.80;;;14.30;99.90;;;;;;6092692;23;20397;-86
2022/10/06 09:27:56;;;;;;;8.60;1.20;;;14.50;99.90;;;;;;6093910;23;20019;-86
2022/10/06 09:30:23;;;;;;;9.68;1.27;;;14.60;99.90;;;;;;6093239;23;20586;-86
2022/10/06 09:32:59;;;;;;;9.77;1.10;;;14.80;99.90;;;;;;6093434;23;20038;-86
2022/10/06 09:35:27;;;;;;;7.88;1.02;;;14.80;99.90;;;;;;6134837;23;20094;-87
2022/10/06 09:37:59;;;;;;;10.45;1.70;;;14.90;99.90;;;;;;6240131;22;20449;-85
2022/10/06 09:40:37;;;;;;;7.15;1.30;;;15.00;99.90;;;;;;6240273;22;20016;-86
2022/10/06 09:43:15;;;;;;;6.50;1.17;;;15.10;99.90;;;;;;6240874;22;20008;-86
2022/10/06 09:45:41;;;;;;;7.35;1.45;;;15.10;99.90;;;;;;6241406;22;20166;-86
2022/10/06 09:48:23;;;;;;;7.95;1.08;;;15.00;99.90;;;;;;6241471;23;20091;-86
2022/10/06 09:51:07;;;;;;;11.32;1.85;;;15.00;99.90;;;;;;6240555;22;20333;-86
2022/10/06 09:53:33;;;;;;;9.98;1.23;;;15.00;99.90;;;;;;6240677;22;20387;-86
2022/10/06 09:56:03;;;;;;;6.05;1.23;;;15.10;99.90;;;;;;6240082;22;20032;-86
2022/10/06 09:58:36;;;;;;;10.13;1.27;;;15.20;99.90;;;;;;6239023;23;20058;-86
2022/10/06 10:01:07;;;;;;;7.10;1.25;;;15.40;99.90;;;;;;6240218;22;20035;-86
2022/10/06 10:03:50;;;;;;;5.45;1.20;;;15.50;99.90;;;;;;6238814;23;20394;-84
2022/10/06 10:06:25;;;;;;;12.63;1.42;;;15.70;99.90;;;;;;6240773;22;20049;-87
2022/10/06 10:08:50;;;;;;;9.25;2.30;;;15.90;99.90;;;;;;6238458;23;20022;-86
2022/10/06 10:14:18;;;;;;;10.20;1.73;;;16.20;99.90;;;;;;6238979;23;20028;-87
2022/10/06 10:16:45;;;;;;;9.63;1.05;;;16.20;99.90;;;;;;6238737;23;20008;-86
2022/10/06 10:19:22;;;;;;;9.38;1.13;;;16.20;99.90;;;;;;6240202;22;20020;-86
2022/10/06 10:21:48;;;;;;;7.72;0.85;;;16.20;99.90;;;;;;6239839;22;20031;-88
2022/10/06 10:24:27;;;;;;;7.43;1.27;;;16.20;99.90;;;;;;6240279;23;20008;-87
2022/10/06 10:27:12;;;;;;;9.00;1.00;;;16.20;99.90;;;;;;6240575;22;20023;-87
2022/10/06 10:29:49;;;;;;;12.05;1.98;;;16.20;99.90;;;;;;6239119;23;20020;-87
2022/10/06 10:32:44;;;;;;;8.68;0.90;;;16.20;99.90;;;;;;6238586;23;20020;-88
2022/10/06 10:35:33;;;;;;;5.90;1.00;;;16.20;99.90;;;;;;6240406;22;20474;-87
2022/10/06 10:38:20;;;;;;;7.25;1.30;;;16.30;99.90;;;;;;6240170;22;20262;-86
2022/10/06 10:40:50;;;;;;;9.82;1.20;;;16.40;99.90;;;;;;6214972;23;20093;-87
2022/10/06 10:43:35;;;;;;;7.43;1.10;;;16.50;99.90;;;;;;6240189;23;20012;-88
2022/10/06 10:46:16;;;;;;;8.55;1.00;;;16.70;99.90;;;;;;6240283;22;20508;-87
2022/10/06 10:48:48;;;;;;;9.18;1.02;;;16.80;99.90;;;;;;6213043;23;20019;-87
2022/10/06 10:51:52;;;;;;;7.65;1.00;;;16.90;99.90;;;;;;6240814;22;20016;-86
2022/10/06 10:54:25;;;;;;;9.05;1.23;;;17.00;99.90;;;;;;6181137;22;20115;-86
2022/10/06 10:56:52;;;;;;;7.57;0.82;;;17.10;99.90;;;;;;6238513;23;20031;-86
2022/10/06 10:59:32;;;;;;;8.25;1.20;;;17.10;99.90;;;;;;6241032;22;20015;-84
2022/10/06 11:02:12;;;;;;;5.80;0.82;;;17.20;99.90;;;;;;6240405;22;20087;-86
2022/10/06 11:04:42;;;;;;;5.82;0.82;;;17.30;99.90;;;;;;6241616;22;20052;-85
2022/10/06 11:07:37;;;;;;;9.82;1.15;;;17.20;99.90;;;;;;6239886;22;20042;-85
2022/10/06 11:10:20;;;;;;;6.97;1.13;;;17.00;99.90;;;;;;6238686;23;20012;-85
2022/10/06 11:13:00;;;;;;;4.85;0.80;;;16.90;99.90;;;;;;6240331;22;20117;-85
2022/10/06 11:15:41;;;;;;;7.30;1.15;;;17.00;99.90;;;;;;6240499;22;20333;-85
2022/10/06 11:18:49;;;;;;;10.23;1.50;;;17.20;99.90;;;;;;6237969;23;20706;-86
2022/10/06 11:21:26;;;;;;;7.75;1.05;;;17.50;99.90;;;;;;6092492;23;20014;-85
2022/10/06 11:24:01;;;;;;;10.27;1.65;;;17.70;99.90;;;;;;6117400;23;20029;-85
2022/10/06 11:27:08;;;;;;;11.63;1.10;;;17.80;99.90;;;;;;6117565;23;20025;-86
2022/10/06 11:30:01;;;;;;;7.90;1.13;;;17.90;99.90;;;;;;6006923;23;20380;-88
2022/10/06 11:32:37;;;;;;;8.55;1.35;;;18.00;99.90;;;;;;6006423;23;20030;-91
2022/10/06 11:35:16;;;;;;;8.15;1.20;;;18.10;99.90;;;;;;6030347;23;20410;-89
2022/10/06 11:38:26;;;;;;;5.72;1.00;;;18.10;99.90;;;;;;6031005;23;20102;-90
2022/10/06 11:41:30;;;;;;;5.60;0.90;;;18.00;99.90;;;;;;6006417;23;20023;-89
2022/10/06 11:44:16;;;;;;;8.10;0.90;;;17.90;99.90;;;;;;6031011;23;20765;-89
2022/10/06 11:47:00;;;;;;;4.63;0.50;;;17.90;99.90;;;;;;6007470;23;20020;-89
2022/10/06 11:49:28;;;;;;;10.40;1.48;;;17.90;99.90;;;;;;6006656;23;20047;-89
2022/10/06 11:52:06;;;;;;;8.05;0.95;;;18.00;99.90;;;;;;6007192;23;20054;-89
2022/10/06 11:54:46;;;;;;;6.07;0.80;;;18.20;99.90;;;;;;6006446;23;20515;-89
2022/10/06 11:57:26;;;;;;;6.70;0.77;;;18.30;99.90;;;;;;6011775;23;20567;-88
2022/10/06 12:00:16;;;;;;;6.90;0.80;;;18.40;99.90;;;;;;6151003;23;20031;-86
2022/10/06 12:02:43;;;;;;;10.15;0.90;;;18.50;99.90;;;;;;6137090;23;20020;-89
2022/10/06 12:05:09;;;;;;;5.72;1.00;;;18.60;99.90;;;;;;6212328;23;20132;-89
2022/10/06 12:07:53;;;;;;;5.45;1.10;;;18.60;99.60;;;;;;6240020;23;20555;-89
2022/10/06 12:10:28;;;;;;;9.23;1.00;;;18.60;98.60;;;;;;6238492;23;20329;-89
2022/10/06 12:13:12;;;;;;;5.45;0.90;;;18.70;99.90;;;;;;6238049;23;20242;-88
2022/10/06 12:16:04;;;;;;;5.82;0.90;;;18.70;99.20;;;;;;6239483;22;20023;-88
2022/10/06 12:18:30;;;;;;;4.82;0.70;;;18.70;99.40;;;;;;6192380;22;20112;-89
2022/10/06 12:21:23;;;;;;;5.55;0.82;;;18.70;99.30;;;;;;6212863;23;20495;-89
2022/10/06 12:24:22;;;;;;;5.80;0.80;;;18.80;99.60;;;;;;6219718;23;20066;-90
2022/10/06 12:27:21;;;;;;;6.57;0.98;;;18.80;98.30;;;;;;6213116;23;20349;-88
2022/10/06 12:29:57;;;;;;;7.28;1.17;;;18.80;98.10;;;;;;6240358;23;20012;-90
2022/10/06 12:32:48;;;;;;;5.07;0.70;;;18.80;97.30;;;;;;6239080;23;20083;-86
2022/10/06 12:35:38;;;;;;;7.25;0.68;;;18.80;97.00;;;;;;6241273;22;20091;-87
2022/10/06 12:38:30;;;;;;;6.38;0.70;;;18.80;98.10;;;;;;6240392;22;20105;-85
2022/10/06 12:40:56;;;;;;;7.05;1.20;;;18.70;96.60;;;;;;6183556;22;20051;-85
2022/10/06 12:43:22;;;;;;;8.73;1.15;;;18.80;97.60;;;;;;6240203;22;20525;-85
2022/10/06 12:46:11;;;;;;;5.80;1.00;;;18.70;97.90;;;;;;6242564;23;20074;-85
2022/10/06 12:48:40;;;;;;;3.45;0.65;;;18.70;97.50;;;;;;6242259;23;20514;-85
2022/10/06 12:51:11;;;;;;;6.45;1.02;;;18.80;98.10;;;;;;6242752;23;20024;-84
2022/10/06 12:54:03;;;;;;;8.98;1.25;;;18.80;98.10;;;;;;6242639;22;20023;-84
2022/10/06 12:56:35;;;;;;;4.10;0.68;;;18.80;96.40;;;;;;6119222;23;20017;-85
2022/10/06 12:59:34;;;;;;;6.32;1.05;;;18.80;96.50;;;;;;6120227;23;20022;-85
2022/10/06 13:02:07;;;;;;;8.55;0.95;;;18.80;96.80;;;;;;6118961;23;20822;-85
2022/10/06 13:04:41;;;;;;;7.00;1.13;;;18.80;97.20;;;;;;6120287;23;20584;-85
2022/10/06 13:07:14;;;;;;;6.15;0.85;;;18.80;96.50;;;;;;6119675;23;20495;-84
2022/10/06 13:09:40;;;;;;;5.13;0.70;;;18.80;97.10;;;;;;6120319;23;20444;-84
2022/10/06 13:12:23;;;;;;;5.45;1.13;;;18.80;97.90;;;;;;6119752;23;20089;-84
2022/10/06 13:15:13;;;;;;;7.55;0.95;;;18.80;98.50;;;;;;6120087;23;20018;-85
2022/10/06 13:17:41;;;;;;;5.25;0.70;;;18.90;97.50;;;;;;6106780;23;20050;-84
2022/10/06 13:20:36;;;;;;;5.72;0.70;;;19.00;97.20;;;;;;6119449;23;20089;-85
2022/10/06 13:23:31;;;;;;;7.68;1.10;;;19.00;96.30;;;;;;6120167;23;20427;-85